Stations

Station Name Date Time Temperature Relative Humidity Precipitation Wind Speed Wind Direction Create Custom Report Daily Report Hourly Report
Aberdeen VTcr 2019-18-02 20:15 40.0 77.79 0.00
Bee Lake 2019-18-02 20:15 43.2 73.54 0.00 4.56 ENE
Brooksville 2019-18-02 20:15
Brooksville2 VTso 2019-18-02 20:15 43.5 76.82 0.16
Brown Loam Exp Stn VT 2019-18-02 20:15 45.3 74.89 0.00
Brown Loam Exp. Stn. 2019-18-02 20:15 46.3 70.87 0.00 5.23 NNE
Catladge Farm 2019-18-02 20:15 41.2 82.10 0.00 12.21 NNE
Clarksdale VTso 2018-24-10 8:30 50.6 84.40 0.00
Cleveland 2019-18-02 20:15 38.3 85.30 0.00 7.23 NE
COOP Stoneville 2019-15-02 7:00 56.0 97 0.00
Home Cypress Farm 2019-18-02 20:15 38.5 80.70 0.00 5.59 NNE
Jackson Co 2019-18-02 20:15
Longwood VTso 2019-18-02 20:15 37.6 86.70 0.00
Lyon 2019-18-02 20:15 36.9 78.92 0.00 7.84 NNE
Macon VTcr 2019-18-02 20:15 43.9 78.33 0.12
Mound Bayou 2019-18-02 20:15 37.5 79.53 0.00 5.61 NE
Olive Branch VTcr 2019-18-02 20:15
Olive Branch2 VTso 2019-18-02 20:15 37.1 70.88 0.00
Onward VT 2019-18-02 20:15 40.1 82.30 0.00
Pontotoc AWS COOP 2019-18-02 20:15
Prairie 2019-18-02 20:15 41.5 70.43 0.00 3.55 N
Sidon 2019-18-02 20:15 41.6 76.09 0.00 1.55 ENE
Stockett Farm 2019-18-02 20:15 51.5 49.90 0.03 3.70 NNE
Stoneville AWS 2019-18-02 20:15 37.1 80.40 0.00 4.88 N
Stoneville F10 2019-18-02 20:15 37.9 74.58 0.00 7.50 NNE
Stoneville SW 2019-18-02 20:15 38.1 83.20 0.00 7.10 NNE
Stoneville W 2019-18-02 20:15 38.3 82.70 0.00 8.36 NNE
Thighman 2019-18-02 20:15 40.8 83.00 0.00 3.19 NE
Tippo VT 2019-18-02 15:30 43.5 70.36 0.00
Tribbett 2019-18-02 20:15 38.4 82.50 0.00 7.38 N
Verona 2019-18-02 20:15 41.0 69.76 0.00 6.27 N
Verona VTso 2019-18-02 20:15 40.7 70.46 0.16